createdAt,value
2023-04-30T00:01:33.696Z,101976.03
2023-04-30T00:05:37.308Z,101978.50
2023-04-30T00:09:40.145Z,101977.59
2023-04-30T00:13:43.444Z,101972.72
2023-04-30T00:17:47.514Z,101976.22
2023-04-30T00:21:50.332Z,101977.25
2023-04-30T00:25:52.998Z,101979.50
2023-04-30T00:29:55.954Z,101981.75
2023-04-30T00:34:00.337Z,101990.91
2023-04-30T00:38:03.035Z,101993.81
2023-04-30T00:42:06.014Z,101995.00
2023-04-30T00:46:08.759Z,101979.38
2023-04-30T00:50:15.731Z,101984.09
2023-04-30T00:54:21.188Z,101982.00
2023-04-30T00:58:24.124Z,101974.22
2023-04-30T01:02:26.959Z,101975.47
2023-04-30T01:06:31.517Z,101983.94
2023-04-30T01:10:42.208Z,101991.81
2023-04-30T01:14:55.940Z,101990.22
2023-04-30T01:19:03.285Z,101985.97
2023-04-30T01:23:29.409Z,101983.72
2023-04-30T01:27:41.384Z,101996.41
2023-04-30T01:31:46.225Z,101996.75
2023-04-30T01:36:08.732Z,102016.63
2023-04-30T01:40:25.147Z,102005.53
2023-04-30T01:44:44.100Z,102012.97
2023-04-30T01:48:55.914Z,102011.09
2023-04-30T01:53:01.914Z,102010.75
2023-04-30T01:57:07.539Z,102019.31
2023-04-30T02:01:27.065Z,102018.97
2023-04-30T02:05:31.175Z,102025.03
2023-04-30T02:09:33.904Z,102025.84
2023-04-30T02:13:36.704Z,102024.19
2023-04-30T02:17:39.712Z,102010.66
2023-04-30T02:21:43.798Z,102016.91
2023-04-30T02:25:46.450Z,102013.38
2023-04-30T02:29:49.420Z,102019.81
2023-04-30T02:33:52.096Z,102015.78
2023-04-30T02:37:56.106Z,102012.78
2023-04-30T02:41:58.771Z,102020.25
2023-04-30T02:46:01.466Z,102018.94
2023-04-30T02:50:04.230Z,102023.22
2023-04-30T02:54:08.620Z,102013.13
2023-04-30T02:58:13.466Z,102020.28
2023-04-30T03:02:16.709Z,102017.78
2023-04-30T03:06:19.795Z,102011.53
2023-04-30T03:10:23.943Z,102023.34
2023-04-30T03:14:27.146Z,102012.06
2023-04-30T03:18:30.156Z,102012.59
2023-04-30T03:22:32.944Z,102014.47
2023-04-30T03:26:37.038Z,102022.25
2023-04-30T03:30:39.822Z,102024.31
2023-04-30T03:34:42.506Z,102023.81
2023-04-30T03:38:45.303Z,102015.97
2023-04-30T03:42:51.404Z,102012.13
2023-04-30T03:46:54.372Z,102013.03
2023-04-30T03:50:57.414Z,102015.59
2023-04-30T03:55:00.185Z,102003.66
2023-04-30T03:59:04.545Z,102011.09
2023-04-30T04:03:08.376Z,102015.47
2023-04-30T04:07:11.445Z,102025.44
2023-04-30T04:11:14.242Z,102020.22
2023-04-30T04:15:18.335Z,102029.16
2023-04-30T04:19:22.311Z,102028.50
2023-04-30T04:23:25.078Z,102020.56
2023-04-30T04:27:27.840Z,102017.22
2023-04-30T04:31:32.561Z,102017.22
2023-04-30T04:35:35.704Z,102020.94
2023-04-30T04:39:38.466Z,102023.44
2023-04-30T04:43:42.440Z,102021.41
2023-04-30T04:47:46.740Z,102016.88
2023-04-30T04:51:49.792Z,102025.44
2023-04-30T04:55:52.449Z,102035.91
2023-04-30T04:59:55.566Z,102031.16
2023-04-30T05:03:59.989Z,102027.91
2023-04-30T05:08:02.985Z,102022.47
2023-04-30T05:12:06.881Z,102023.25
2023-04-30T05:16:09.619Z,102022.16
2023-04-30T05:20:14.371Z,102019.34
2023-04-30T05:24:17.698Z,102027.66
2023-04-30T05:28:20.477Z,102028.91
2023-04-30T05:32:23.905Z,102037.06
2023-04-30T05:36:28.458Z,102035.41
2023-04-30T05:40:31.547Z,102047.06
2023-04-30T05:44:34.230Z,102053.91
2023-04-30T05:48:36.909Z,102046.81
2023-04-30T05:52:41.062Z,102042.41
2023-04-30T05:56:43.908Z,102047.41
2023-04-30T06:00:50.082Z,102053.28
2023-04-30T06:04:52.968Z,102050.53
2023-04-30T06:08:57.018Z,102052.03
2023-04-30T06:12:59.825Z,102053.13
2023-04-30T06:17:03.322Z,102049.66
2023-04-30T06:21:06.091Z,102061.16
2023-04-30T06:25:10.994Z,102056.78
2023-04-30T06:29:13.680Z,102063.00
2023-04-30T06:33:16.304Z,102073.53
2023-04-30T06:37:19.312Z,102077.44
2023-04-30T06:41:23.414Z,102083.56
2023-04-30T06:45:26.170Z,102074.13
2023-04-30T06:49:28.794Z,102071.91
2023-04-30T06:53:31.475Z,102065.91
2023-04-30T06:57:37.370Z,102068.56
2023-04-30T07:01:40.260Z,102064.31
2023-04-30T07:05:43.052Z,102068.94
2023-04-30T07:09:45.923Z,102076.41
2023-04-30T07:13:50.448Z,102077.28
2023-04-30T07:17:53.264Z,102076.25
2023-04-30T07:21:56.013Z,102080.41
2023-04-30T07:25:58.711Z,102086.31
2023-04-30T07:30:02.777Z,102078.22
2023-04-30T07:34:05.466Z,102067.13
2023-04-30T07:38:08.315Z,102072.19
2023-04-30T07:42:11.016Z,102070.66
2023-04-30T07:46:15.048Z,102074.34
2023-04-30T07:50:18.582Z,102067.31
2023-04-30T07:54:21.246Z,102067.19
2023-04-30T07:58:23.936Z,102069.66
2023-04-30T08:02:28.564Z,102076.16
2023-04-30T08:06:31.743Z,102081.84
2023-04-30T08:10:35.074Z,102074.41
2023-04-30T08:14:37.784Z,102068.34
2023-04-30T08:18:44.729Z,102070.06
2023-04-30T08:22:47.602Z,102078.88
2023-04-30T08:26:50.461Z,102081.53
2023-04-30T08:30:53.606Z,102077.41
2023-04-30T08:34:57.756Z,102075.00
2023-04-30T08:39:01.982Z,102083.09
2023-04-30T08:43:07.352Z,102079.19
2023-04-30T08:47:13.119Z,102076.28
2023-04-30T08:51:17.182Z,102074.78
2023-04-30T08:55:19.928Z,102067.34
2023-04-30T08:59:22.767Z,102066.56
2023-04-30T09:03:25.680Z,102068.34
2023-04-30T09:07:34.584Z,102068.63
2023-04-30T09:11:37.270Z,102070.69
2023-04-30T09:15:41.756Z,102072.25
2023-04-30T09:19:44.745Z,102072.06
2023-04-30T09:23:59.472Z,102065.53
2023-04-30T09:28:09.170Z,102060.16
2023-04-30T09:32:11.911Z,102059.94
2023-04-30T09:36:16.821Z,102073.22
2023-04-30T09:40:33.152Z,102056.44
2023-04-30T09:44:39.128Z,102049.78
2023-04-30T09:48:42.547Z,102058.16
2023-04-30T09:52:52.919Z,102054.03
2023-04-30T09:56:58.959Z,102049.06
2023-04-30T10:01:06.531Z,102045.22
2023-04-30T10:05:10.718Z,102044.59
2023-04-30T10:09:15.983Z,102034.16
2023-04-30T10:13:22.776Z,102041.63
2023-04-30T10:17:28.859Z,102022.00
2023-04-30T10:21:33.875Z,102013.72
2023-04-30T10:25:38.357Z,102010.91
2023-04-30T10:29:43.623Z,102013.16
2023-04-30T10:33:54.757Z,102002.91
2023-04-30T10:38:05.506Z,102006.50
2023-04-30T10:42:11.622Z,102000.72
2023-04-30T10:46:23.266Z,101994.91
2023-04-30T10:50:26.091Z,101984.69
2023-04-30T10:54:29.847Z,101975.53
2023-04-30T10:58:34.508Z,101964.16
2023-04-30T11:02:42.568Z,101968.00
2023-04-30T11:06:56.978Z,101950.88
2023-04-30T11:11:01.580Z,101959.19
2023-04-30T11:15:08.814Z,101945.03
2023-04-30T11:19:15.046Z,101942.59
2023-04-30T11:23:25.199Z,101950.59
2023-04-30T11:27:36.428Z,101946.13
2023-04-30T11:31:39.484Z,101950.03
2023-04-30T11:35:44.189Z,101937.53
2023-04-30T11:39:47.943Z,101934.88
2023-04-30T11:43:50.658Z,101928.50
2023-04-30T11:47:55.907Z,101923.56
2023-04-30T11:51:59.908Z,101916.34
2023-04-30T11:56:06.348Z,101923.16
2023-04-30T12:00:15.211Z,101915.91
2023-04-30T12:04:19.168Z,101910.47
2023-04-30T12:08:23.484Z,101898.34
2023-04-30T12:12:29.753Z,101895.13
2023-04-30T12:16:41.452Z,101892.06
2023-04-30T12:20:44.613Z,101886.66
2023-04-30T12:24:48.612Z,101883.94
2023-04-30T12:28:52.577Z,101890.00
2023-04-30T12:32:58.897Z,101882.38
2023-04-30T12:37:03.046Z,101882.69
2023-04-30T12:41:07.141Z,101875.00
2023-04-30T12:45:11.139Z,101877.94
2023-04-30T12:49:14.341Z,101875.16
2023-04-30T12:53:17.080Z,101872.84
2023-04-30T12:57:22.150Z,101867.81
2023-04-30T13:01:25.722Z,101866.13
2023-04-30T13:05:28.530Z,101857.03
2023-04-30T13:09:31.366Z,101848.78
2023-04-30T13:13:35.361Z,101854.19
2023-04-30T13:17:39.430Z,101845.88
2023-04-30T13:21:42.323Z,101841.66
2023-04-30T13:25:44.996Z,101836.47
2023-04-30T13:29:49.089Z,101826.38
2023-04-30T13:33:51.975Z,101826.78
2023-04-30T13:37:55.120Z,101818.63
2023-04-30T13:41:57.770Z,101819.63
2023-04-30T13:46:01.979Z,101817.31
2023-04-30T13:50:05.439Z,101825.63
2023-04-30T13:54:08.115Z,101808.97
2023-04-30T13:58:10.805Z,101806.81
2023-04-30T14:02:14.785Z,101805.06
2023-04-30T14:06:17.959Z,101792.63
2023-04-30T14:10:20.700Z,101803.84
2023-04-30T14:14:29.704Z,101804.13
2023-04-30T14:18:34.205Z,101789.34
2023-04-30T14:22:38.381Z,101792.03
2023-04-30T14:26:43.412Z,101788.75
2023-04-30T14:30:47.890Z,101786.09
2023-04-30T14:34:51.991Z,101787.81
2023-04-30T14:38:54.917Z,101776.16
2023-04-30T14:42:58.001Z,101775.44
2023-04-30T14:47:01.411Z,101762.19
2023-04-30T14:51:05.625Z,101769.63
2023-04-30T14:55:09.094Z,101760.28
2023-04-30T14:59:11.793Z,101756.81
2023-04-30T15:03:14.652Z,101753.00
2023-04-30T15:07:19.600Z,101755.97
2023-04-30T15:11:24.056Z,101755.38
2023-04-30T15:15:28.962Z,101749.63
2023-04-30T15:19:31.684Z,101746.63
2023-04-30T15:23:35.814Z,101743.69
2023-04-30T15:27:39.043Z,101737.97
2023-04-30T15:31:42.023Z,101736.38
2023-04-30T15:35:44.740Z,101733.63
2023-04-30T15:39:50.001Z,101728.88
2023-04-30T15:43:52.732Z,101727.28
2023-04-30T15:47:55.499Z,101726.44
2023-04-30T15:51:58.474Z,101714.88
2023-04-30T15:56:04.297Z,101713.50
2023-04-30T16:00:10.707Z,101713.50
2023-04-30T16:04:16.300Z,101711.56
2023-04-30T16:08:19.109Z,101705.50
2023-04-30T16:12:23.146Z,101697.19
2023-04-30T16:16:27.820Z,101701.63
2023-04-30T16:20:32.030Z,101702.72
2023-04-30T16:24:34.713Z,101692.00
2023-04-30T16:28:38.710Z,101690.88
2023-04-30T16:32:41.397Z,101685.66
2023-04-30T16:36:44.118Z,101685.63
2023-04-30T16:40:46.845Z,101674.00
2023-04-30T16:44:52.172Z,101681.47
2023-04-30T16:48:54.868Z,101672.38
2023-04-30T16:53:07.424Z,101672.94
2023-04-30T16:57:25.860Z,101673.50
2023-04-30T17:01:32.042Z,101665.50
2023-04-30T17:05:37.054Z,101663.59
2023-04-30T17:09:46.246Z,101663.84
2023-04-30T17:13:50.426Z,101656.44
2023-04-30T17:18:15.062Z,101651.69
2023-04-30T17:22:34.279Z,101648.38
2023-04-30T17:26:53.242Z,101652.41
2023-04-30T17:31:13.637Z,101645.41
2023-04-30T17:35:36.325Z,101644.00
2023-04-30T17:39:56.141Z,101648.97
2023-04-30T17:44:16.965Z,101638.44
2023-04-30T17:48:36.365Z,101641.09
2023-04-30T17:52:58.846Z,101641.03
2023-04-30T17:57:19.762Z,101640.94
2023-04-30T18:01:32.061Z,101627.75
2023-04-30T18:05:48.494Z,101631.78
2023-04-30T18:10:04.187Z,101619.84
2023-04-30T18:14:23.774Z,101626.63
2023-04-30T18:18:42.716Z,101627.59
2023-04-30T18:23:00.797Z,101627.16
2023-04-30T18:27:22.066Z,101623.72
2023-04-30T18:31:40.605Z,101623.88
2023-04-30T18:36:05.362Z,101623.41
2023-04-30T18:40:22.731Z,101623.06
2023-04-30T18:44:43.452Z,101631.41
2023-04-30T18:48:52.119Z,101626.72
2023-04-30T18:52:54.953Z,101618.06
2023-04-30T18:57:16.315Z,101620.16
2023-04-30T19:01:33.924Z,101624.97
2023-04-30T19:05:55.476Z,101626.72
2023-04-30T19:10:10.062Z,101628.22
2023-04-30T19:14:29.400Z,101627.78
2023-04-30T19:19:00.498Z,101624.31
2023-04-30T19:23:19.314Z,101632.38
2023-04-30T19:27:37.799Z,101624.00
2023-04-30T19:31:51.490Z,101630.38
2023-04-30T19:35:57.577Z,101624.69
2023-04-30T19:40:00.785Z,101626.19
2023-04-30T19:44:04.810Z,101632.91
2023-04-30T19:48:13.257Z,101631.88
2023-04-30T19:52:17.242Z,101628.94
2023-04-30T19:56:33.988Z,101620.53
2023-04-30T20:00:52.345Z,101622.22
2023-04-30T20:05:10.076Z,101625.56
2023-04-30T20:09:29.928Z,101632.75
2023-04-30T20:13:49.554Z,101633.09
2023-04-30T20:18:11.214Z,101632.66
2023-04-30T20:22:29.841Z,101622.34
2023-04-30T20:26:44.903Z,101626.97
2023-04-30T20:30:53.525Z,101623.78
2023-04-30T20:35:00.449Z,101625.69
2023-04-30T20:39:04.127Z,101615.97
2023-04-30T20:43:09.394Z,101611.31
2023-04-30T20:47:14.278Z,101610.59
2023-04-30T20:51:17.410Z,101610.25
2023-04-30T20:55:21.196Z,101600.09
2023-04-30T20:59:25.347Z,101599.00
2023-04-30T21:03:36.930Z,101597.47
2023-04-30T21:07:50.217Z,101592.34
2023-04-30T21:12:06.510Z,101591.84
2023-04-30T21:16:16.568Z,101585.78
2023-04-30T21:20:19.551Z,101584.59
2023-04-30T21:24:22.512Z,101587.44
2023-04-30T21:28:25.466Z,101582.31
2023-04-30T21:32:29.566Z,101573.50
2023-04-30T21:36:35.096Z,101579.53
2023-04-30T21:40:37.872Z,101572.66
2023-04-30T21:44:41.014Z,101574.41
2023-04-30T21:48:46.989Z,101576.91
2023-04-30T21:52:50.789Z,101571.06
2023-04-30T21:56:54.177Z,101576.75
2023-04-30T22:00:58.952Z,101562.53
2023-04-30T22:05:08.743Z,101562.16
2023-04-30T22:09:12.311Z,101562.63
2023-04-30T22:13:15.061Z,101553.00
2023-04-30T22:17:18.322Z,101552.03
2023-04-30T22:21:22.669Z,101538.84
2023-04-30T22:25:25.828Z,101533.50
2023-04-30T22:29:28.509Z,101536.94
2023-04-30T22:33:35.782Z,101525.63
2023-04-30T22:37:40.219Z,101524.41
2023-04-30T22:41:46.388Z,101524.31
2023-04-30T22:45:50.056Z,101517.88
2023-04-30T22:49:55.880Z,101517.47
2023-04-30T22:54:03.395Z,101513.97
2023-04-30T22:58:07.122Z,101506.50
2023-04-30T23:02:15.439Z,101509.91
2023-04-30T23:06:19.831Z,101509.75
2023-04-30T23:10:24.227Z,101510.66
2023-04-30T23:14:27.015Z,101502.38
2023-04-30T23:18:31.410Z,101503.03
2023-04-30T23:22:34.240Z,101497.19
2023-04-30T23:26:38.960Z,101491.00
2023-04-30T23:30:42.173Z,101491.69
2023-04-30T23:34:45.343Z,101491.97
2023-04-30T23:38:51.584Z,101494.16
2023-04-30T23:43:02.894Z,101488.53
2023-04-30T23:47:06.580Z,101484.41
2023-04-30T23:51:11.714Z,101471.47
2023-04-30T23:55:29.262Z,101477.78
2023-04-30T23:59:33.582Z,101469.50
